Lynchburg Regional Preston Glenn Field
KLYH : now visible

Airfield :











YOU CAN JOIN US ON...

 
LOGIN :

Register | Disclaimer

   EN    FR    IT 

 









Legend :    VFR   Marginal VFR   IFR   Intensive IFR   Very Intensive IFR
Visi :
Ceiling :
>= 8 km
>= 3000ft
5 to 8 km
1000 to 3000 ft
1500m to 5 km
500 to 1000 ft
800 to 1500m
200 to 500 ft
< 800m
< 200 ft
Symbols :   Thunderstorms  Fog  Heavy snow  Heavy precipitations  Wind > 20 kt







- Airport Elevation : 938 ft
- IATA code : LYH


KLYH - Lynchburg Regional Preston Glenn Field

CURRENT METAR :
  • 210354Z AUTO 00000KT 10SM CLR 16/13 A3027 RMK AO2 SLP244 T01560128

EXPIRED METARs :
  • 210254Z AUTO 00000KT 10SM CLR 16/12 A3027 RMK AO2 SLP245 T01610122 53007
  • 210154Z 00000KT 10SM CLR 17/13 A3027 RMK AO2 SLP244 T01720128

TAF KLYH
Valid from the 21 at 00:00 until the 22 at 00:00 UTC


202323Z 2100/2124 22004KT P6SM SKC
FM210400 VRB03KT P6SM SKC
FM211500 21004KT P6SM SCT060
No reported NOTAMs for that airfield.



MET'MAP, your aeronautical weather chart ! - Copyright ORBIFLY December 2007 - Disclaimer

ORBIFLY MET'MAP TEAM :

Programming & Development : Alexandra Zaïnal
Concept & Development : Baudouin d'Aumeries
Co-Development & Prog : Marc-Olivier Méhu
Technical & hardware support : Manuel Goepfert

Contact : metmap@orbifly.com




SOURCES & CREDITS :

   NOAA       Earth
Advisory